createdAt,value
2022-09-03T00:02:24.266Z,12.78
2022-09-03T00:05:05.742Z,12.82
2022-09-03T00:07:42.223Z,12.81
2022-09-03T00:10:17.561Z,12.82
2022-09-03T00:12:49.049Z,12.84
2022-09-03T00:15:21.640Z,12.83
2022-09-03T00:17:55.821Z,12.83
2022-09-03T00:20:32.002Z,12.87
2022-09-03T00:23:05.437Z,12.91
2022-09-03T00:25:39.867Z,12.93
2022-09-03T00:28:17.764Z,12.94
2022-09-03T00:30:57.318Z,12.94
2022-09-03T00:33:29.896Z,12.95
2022-09-03T00:36:12.533Z,12.96
2022-09-03T00:38:41.957Z,12.94
2022-09-03T00:41:22.431Z,12.93
2022-09-03T00:44:21.603Z,12.89
2022-09-03T00:46:57.527Z,12.84
2022-09-03T00:49:38.766Z,12.79
2022-09-03T00:52:17.174Z,12.78
2022-09-03T00:54:57.398Z,12.77
2022-09-03T00:57:41.546Z,12.73
2022-09-03T01:00:15.078Z,12.69
2022-09-03T01:03:01.186Z,12.63
2022-09-03T01:05:56.529Z,12.52
2022-09-03T01:08:49.247Z,12.45
2022-09-03T01:11:27.542Z,12.42
2022-09-03T01:14:06.467Z,12.39
2022-09-03T01:16:46.111Z,12.38
2022-09-03T01:19:39.905Z,12.38
2022-09-03T01:22:32.800Z,12.36
2022-09-03T01:25:22.695Z,12.35
2022-09-03T01:28:20.506Z,12.34
2022-09-03T01:30:56.418Z,12.27
2022-09-03T01:33:32.775Z,12.19
2022-09-03T01:36:10.165Z,12.16
2022-09-03T01:38:44.736Z,12.10
2022-09-03T01:41:39.783Z,11.99
2022-09-03T01:44:18.083Z,11.90
2022-09-03T01:46:52.182Z,11.81
2022-09-03T01:49:26.168Z,11.74
2022-09-03T01:52:07.126Z,11.66
2022-09-03T01:55:03.089Z,11.50
2022-09-03T01:57:47.271Z,11.42
2022-09-03T02:00:20.709Z,11.34
2022-09-03T02:02:53.042Z,11.23
2022-09-03T02:05:24.958Z,11.14
2022-09-03T02:08:01.066Z,11.09
2022-09-03T02:10:35.408Z,11.00
2022-09-03T02:13:09.756Z,10.93
2022-09-03T02:15:47.209Z,10.88
2022-09-03T02:18:22.444Z,10.76
2022-09-03T02:20:54.948Z,10.67
2022-09-03T02:23:28.228Z,10.64
2022-09-03T02:26:00.262Z,10.54
2022-09-03T02:28:30.914Z,10.48
2022-09-03T02:31:02.869Z,10.44
2022-09-03T02:33:33.922Z,10.40
2022-09-03T02:36:05.514Z,10.33
2022-09-03T02:38:34.978Z,10.30
2022-09-03T02:41:08.502Z,10.27
2022-09-03T02:43:43.674Z,10.25
2022-09-03T02:46:19.008Z,10.22
2022-09-03T02:48:53.250Z,10.17
2022-09-03T02:51:22.927Z,10.13
2022-09-03T02:53:52.956Z,10.13
2022-09-03T02:56:26.922Z,10.13
2022-09-03T02:58:56.327Z,10.13
2022-09-03T03:01:28.652Z,10.15
2022-09-03T03:03:58.203Z,10.19
2022-09-03T03:06:28.260Z,10.21
2022-09-03T03:08:57.824Z,10.27
2022-09-03T03:11:28.290Z,10.27
2022-09-03T03:14:11.654Z,10.28
2022-09-03T03:16:42.387Z,10.29
2022-09-03T03:19:11.749Z,10.31
2022-09-03T03:21:41.254Z,10.36
2022-09-03T03:24:11.141Z,10.42
2022-09-03T03:26:41.192Z,10.46
2022-09-03T03:29:16.009Z,10.49
2022-09-03T03:31:46.780Z,10.45
2022-09-03T03:34:16.078Z,10.42
2022-09-03T03:36:45.334Z,10.40
2022-09-03T03:39:15.016Z,10.34
2022-09-03T03:41:44.471Z,10.28
2022-09-03T03:44:13.761Z,10.23
2022-09-03T03:46:43.428Z,10.18
2022-09-03T03:49:14.156Z,10.13
2022-09-03T03:51:43.417Z,10.10
2022-09-03T03:54:12.904Z,10.07
2022-09-03T03:56:55.232Z,10.08
2022-09-03T03:59:25.028Z,10.08
2022-09-03T04:01:56.223Z,10.10
2022-09-03T04:04:26.935Z,10.14
2022-09-03T04:06:56.201Z,10.17
2022-09-03T04:09:25.626Z,10.22
2022-09-03T04:11:57.868Z,10.31
2022-09-03T04:14:27.364Z,10.35
2022-09-03T04:16:56.959Z,10.34
2022-09-03T04:19:29.567Z,10.35
2022-09-03T04:21:58.967Z,10.40
2022-09-03T04:24:28.591Z,10.43
2022-09-03T04:26:57.801Z,10.46
2022-09-03T04:29:30.741Z,10.49
2022-09-03T04:32:17.640Z,10.52
2022-09-03T04:34:48.618Z,10.57
2022-09-03T04:37:19.893Z,10.61
2022-09-03T04:39:49.288Z,10.68
2022-09-03T04:42:18.668Z,10.71
2022-09-03T04:44:47.969Z,10.73
2022-09-03T04:47:17.318Z,10.76
2022-09-03T04:49:47.962Z,10.79
2022-09-03T04:52:17.365Z,10.81
2022-09-03T04:54:46.610Z,10.86
2022-09-03T04:57:16.013Z,10.89
2022-09-03T04:59:45.406Z,10.92
2022-09-03T05:02:15.535Z,10.96
2022-09-03T05:04:44.936Z,11.01
2022-09-03T05:07:15.773Z,11.08
2022-09-03T05:09:49.786Z,11.11
2022-09-03T05:12:19.067Z,11.17
2022-09-03T05:14:48.632Z,11.24
2022-09-03T05:17:17.950Z,11.27
2022-09-03T05:19:47.291Z,11.31
2022-09-03T05:22:21.270Z,11.37
2022-09-03T05:24:51.063Z,11.42
2022-09-03T05:27:20.833Z,11.46
2022-09-03T05:29:50.049Z,11.53
2022-09-03T05:32:19.274Z,11.54
2022-09-03T05:34:48.974Z,11.56
2022-09-03T05:37:19.717Z,11.58
2022-09-03T05:39:49.058Z,11.60
2022-09-03T05:42:18.398Z,11.62
2022-09-03T05:44:49.463Z,11.65
2022-09-03T05:47:19.341Z,11.70
2022-09-03T05:49:48.879Z,11.71
2022-09-03T05:52:21.685Z,11.75
2022-09-03T05:54:51.290Z,11.81
2022-09-03T05:57:20.740Z,11.85
2022-09-03T05:59:51.113Z,11.88
2022-09-03T06:02:20.718Z,11.90
2022-09-03T06:04:53.873Z,11.94
2022-09-03T06:07:26.182Z,11.96
2022-09-03T06:09:56.272Z,11.99
2022-09-03T06:12:25.768Z,12.02
2022-09-03T06:14:55.355Z,12.09
2022-09-03T06:17:25.912Z,12.13
2022-09-03T06:19:55.531Z,12.16
2022-09-03T06:22:28.399Z,12.19
2022-09-03T06:24:57.988Z,12.23
2022-09-03T06:27:27.528Z,12.28
2022-09-03T06:29:59.563Z,12.26
2022-09-03T06:32:29.910Z,12.25
2022-09-03T06:34:59.369Z,12.29
2022-09-03T06:37:30.274Z,12.30
2022-09-03T06:39:59.868Z,12.33
2022-09-03T06:42:29.832Z,12.38
2022-09-03T06:44:59.394Z,12.40
2022-09-03T06:47:30.311Z,12.46
2022-09-03T06:50:00.183Z,12.41
2022-09-03T06:52:31.372Z,12.43
2022-09-03T06:55:01.106Z,12.49
2022-09-03T06:57:30.764Z,12.49
2022-09-03T07:00:00.330Z,12.52
2022-09-03T07:02:30.045Z,12.58
2022-09-03T07:05:00.428Z,12.61
2022-09-03T07:07:31.372Z,12.68
2022-09-03T07:10:01.809Z,12.68
2022-09-03T07:12:35.020Z,12.75
2022-09-03T07:15:05.807Z,12.80
2022-09-03T07:17:35.520Z,12.87
2022-09-03T07:20:05.892Z,12.99
2022-09-03T07:22:36.957Z,13.06
2022-09-03T07:25:08.161Z,13.13
2022-09-03T07:27:37.711Z,13.24
2022-09-03T07:30:10.627Z,13.33
2022-09-03T07:32:40.979Z,13.42
2022-09-03T07:35:10.719Z,13.58
2022-09-03T07:45:37.515Z,14.10
2022-09-03T07:48:07.198Z,14.22
2022-09-03T07:50:39.264Z,14.34
2022-09-03T07:53:08.964Z,14.43
2022-09-03T08:01:41.554Z,14.71
2022-09-03T08:04:12.042Z,14.81
2022-09-03T08:06:42.245Z,14.93
2022-09-03T08:09:14.739Z,15.05
2022-09-03T08:11:45.534Z,15.18
2022-09-03T08:14:16.486Z,15.36
2022-09-03T08:16:48.916Z,15.45
2022-09-03T08:19:19.578Z,15.54
2022-09-03T08:21:49.696Z,15.63
2022-09-03T08:24:21.246Z,15.72
2022-09-03T08:26:52.368Z,15.78
2022-09-03T08:29:23.201Z,15.88
2022-09-03T08:31:55.117Z,16.01
2022-09-03T08:34:25.007Z,16.09
2022-09-03T08:36:54.668Z,16.19
2022-09-03T08:39:24.149Z,16.26
2022-09-03T08:42:37.895Z,16.37
2022-09-03T08:45:10.197Z,16.46
2022-09-03T08:47:48.303Z,16.63
2022-09-03T08:50:26.925Z,16.95
2022-09-03T08:53:03.571Z,17.20
2022-09-03T08:55:42.654Z,17.36
2022-09-03T08:58:16.093Z,17.49
2022-09-03T09:01:01.241Z,17.61
2022-09-03T09:03:52.477Z,17.75
2022-09-03T09:06:34.884Z,17.93
2022-09-03T09:09:19.440Z,18.10
2022-09-03T09:12:08.534Z,18.17
2022-09-03T09:14:52.041Z,18.29
2022-09-03T09:18:00.125Z,18.48
2022-09-03T09:20:42.739Z,18.66
2022-09-03T09:23:17.193Z,18.75
2022-09-03T09:25:51.091Z,18.90
2022-09-03T09:28:23.695Z,19.09
2022-09-03T09:30:56.901Z,19.28
2022-09-03T09:33:26.693Z,19.52
2022-09-03T09:36:03.313Z,19.81
2022-09-03T09:38:37.410Z,20.09
2022-09-03T09:41:13.253Z,20.33
2022-09-03T09:43:43.565Z,20.41
2022-09-03T09:46:18.078Z,20.54
2022-09-03T09:48:53.786Z,20.76
2022-09-03T09:51:30.869Z,20.97
2022-09-03T09:54:13.778Z,21.07
2022-09-03T09:56:44.848Z,21.12
2022-09-03T09:59:16.252Z,21.26
2022-09-03T10:01:47.041Z,21.43
2022-09-03T10:04:33.190Z,21.41
2022-09-03T10:07:20.645Z,21.46
2022-09-03T10:10:06.869Z,21.55
2022-09-03T10:12:43.416Z,21.66
2022-09-03T10:15:25.039Z,21.71
2022-09-03T10:18:04.540Z,21.73
2022-09-03T10:20:44.410Z,21.67
2022-09-03T10:23:23.521Z,21.66
2022-09-03T10:26:07.441Z,21.69
2022-09-03T10:28:42.564Z,21.60
2022-09-03T10:31:43.149Z,21.59
2022-09-03T10:34:23.780Z,21.57
2022-09-03T10:37:08.474Z,21.55
2022-09-03T10:40:01.890Z,21.61
2022-09-03T10:42:45.783Z,21.56
2022-09-03T10:45:24.539Z,21.51
2022-09-03T10:48:42.554Z,21.52
2022-09-03T10:51:21.508Z,21.50
2022-09-03T10:54:17.711Z,21.47
2022-09-03T10:57:02.886Z,21.56
2022-09-03T10:59:51.680Z,21.62
2022-09-03T11:03:21.110Z,21.67
2022-09-03T11:06:03.452Z,21.81
2022-09-03T11:08:40.206Z,21.93
2022-09-03T11:11:20.016Z,22.16
2022-09-03T11:13:58.143Z,22.42
2022-09-03T11:16:35.230Z,22.58
2022-09-03T11:19:08.431Z,22.84
2022-09-03T11:21:41.903Z,23.15
2022-09-03T11:24:18.796Z,23.56
2022-09-03T11:26:58.862Z,23.76
2022-09-03T11:29:39.964Z,23.59
2022-09-03T11:32:18.175Z,23.57
2022-09-03T11:34:51.784Z,23.53
2022-09-03T11:37:26.022Z,23.57
2022-09-03T11:40:01.272Z,23.54
2022-09-03T11:42:36.031Z,23.56
2022-09-03T11:45:37.584Z,23.65
2022-09-03T11:48:35.929Z,23.72
2022-09-03T11:51:06.129Z,23.74
2022-09-03T11:53:37.726Z,23.92
2022-09-03T11:56:20.611Z,24.04
2022-09-03T11:59:18.191Z,24.34
2022-09-03T12:01:59.044Z,24.67
2022-09-03T12:04:37.087Z,24.98
2022-09-03T12:07:38.676Z,25.39
2022-09-03T12:10:35.915Z,25.67
2022-09-03T12:13:30.019Z,26.00
2022-09-03T12:16:27.545Z,26.41
2022-09-03T12:19:10.223Z,26.78
2022-09-03T12:21:42.733Z,27.16
2022-09-03T12:24:14.435Z,27.34
2022-09-03T12:26:44.845Z,27.58
2022-09-03T12:29:27.878Z,27.90
2022-09-03T12:32:07.540Z,28.09
2022-09-03T12:34:38.405Z,28.20
2022-09-03T12:40:26.293Z,28.04
2022-09-03T12:43:37.096Z,28.01
2022-09-03T12:48:40.525Z,27.51
2022-09-03T12:54:09.673Z,27.86
2022-09-03T12:56:42.607Z,28.07
2022-09-03T12:59:19.142Z,28.30
2022-09-03T13:01:53.337Z,28.61
2022-09-03T13:04:28.126Z,28.95
2022-09-03T13:07:05.300Z,29.22
2022-09-03T13:09:39.280Z,29.62
2022-09-03T13:12:21.710Z,29.18
2022-09-03T13:14:52.685Z,28.89
2022-09-03T13:17:37.754Z,28.39
2022-09-03T13:20:24.527Z,28.00
2022-09-03T13:23:44.551Z,27.39
2022-09-03T13:26:28.705Z,26.82
2022-09-03T13:29:18.617Z,26.22
2022-09-03T13:31:51.956Z,25.61
2022-09-03T13:34:26.212Z,25.13
2022-09-03T13:37:00.849Z,24.84
2022-09-03T13:39:36.692Z,24.50
2022-09-03T13:42:11.083Z,24.22
2022-09-03T13:44:46.496Z,23.83
2022-09-03T13:47:29.028Z,23.60
2022-09-03T13:50:22.267Z,23.37
2022-09-03T13:52:59.118Z,23.11
2022-09-03T13:55:38.910Z,22.85
2022-09-03T13:58:21.169Z,22.42
2022-09-03T14:01:09.254Z,21.99
2022-09-03T14:03:49.099Z,21.24
2022-09-03T14:06:40.988Z,20.80
2022-09-03T14:09:26.671Z,20.26
2022-09-03T14:12:07.436Z,19.71
2022-09-03T14:14:53.695Z,19.13
2022-09-03T14:17:42.357Z,18.84
2022-09-03T14:20:15.184Z,18.42
2022-09-03T14:22:54.966Z,18.14
2022-09-03T14:25:26.917Z,17.95
2022-09-03T14:28:14.373Z,17.74
2022-09-03T14:30:49.640Z,17.55
2022-09-03T14:33:33.143Z,17.52
2022-09-03T14:36:28.250Z,17.43
2022-09-03T14:39:24.450Z,17.34
2022-09-03T14:42:11.373Z,17.30
2022-09-03T14:46:06.121Z,17.31
2022-09-03T14:58:30.505Z,17.11
2022-09-03T15:01:05.325Z,17.14
2022-09-03T15:04:32.641Z,17.22
2022-09-03T15:07:34.327Z,17.25
2022-09-03T15:11:02.211Z,17.19
2022-09-03T15:13:37.375Z,17.21
2022-09-03T15:16:31.403Z,17.07
2022-09-03T15:19:39.077Z,17.02
2022-09-03T15:22:28.755Z,17.00
2022-09-03T15:25:15.648Z,16.95
2022-09-03T15:28:07.110Z,17.00
2022-09-03T15:30:44.750Z,16.98
2022-09-03T15:33:28.516Z,17.02
2022-09-03T15:36:17.717Z,16.99
2022-09-03T15:38:57.121Z,16.94
2022-09-03T15:41:40.195Z,16.94
2022-09-03T15:44:19.606Z,16.98
2022-09-03T15:46:59.799Z,17.02
2022-09-03T15:49:54.428Z,17.25
2022-09-03T15:52:40.391Z,17.52
2022-09-03T15:55:16.581Z,17.77
2022-09-03T15:58:06.703Z,17.79
2022-09-03T16:01:00.385Z,17.73
2022-09-03T16:03:59.605Z,17.67
2022-09-03T16:06:40.144Z,17.60
2022-09-03T16:09:28.540Z,17.51
2022-09-03T16:12:11.946Z,17.46
2022-09-03T16:14:48.806Z,17.46
2022-09-03T16:17:30.521Z,17.49
2022-09-03T16:20:07.798Z,17.47
2022-09-03T16:22:48.016Z,17.45
2022-09-03T16:25:23.476Z,17.37
2022-09-03T16:28:08.077Z,17.33
2022-09-03T16:31:04.849Z,17.28
2022-09-03T16:33:48.966Z,17.27
2022-09-03T16:36:36.347Z,17.18
2022-09-03T16:39:23.541Z,17.15
2022-09-03T16:42:06.879Z,17.14
2022-09-03T16:44:59.687Z,17.12
2022-09-03T16:47:51.943Z,17.17
2022-09-03T16:50:43.484Z,17.22
2022-09-03T16:53:28.574Z,17.24
2022-09-03T16:56:29.790Z,17.26
2022-09-03T16:59:12.132Z,17.25
2022-09-03T17:02:23.817Z,17.22
2022-09-03T17:05:29.544Z,17.09
2022-09-03T17:08:20.267Z,17.00
2022-09-03T17:11:00.909Z,16.94
2022-09-03T17:14:03.706Z,16.87
2022-09-03T17:16:52.445Z,16.80
2022-09-03T17:19:33.926Z,16.73
2022-09-03T17:22:23.662Z,16.67
2022-09-03T17:25:02.961Z,16.59
2022-09-03T17:27:51.643Z,16.51
2022-09-03T17:30:30.757Z,16.49
2022-09-03T17:33:45.531Z,16.38
2022-09-03T17:36:19.346Z,16.34
2022-09-03T17:39:51.261Z,16.26
2022-09-03T17:42:33.075Z,16.21
2022-09-03T17:45:15.700Z,16.15
2022-09-03T17:48:21.830Z,16.06
2022-09-03T17:50:59.291Z,16.02
2022-09-03T17:53:40.609Z,15.99
2022-09-03T17:56:24.533Z,15.93
2022-09-03T17:59:09.507Z,15.77
2022-09-03T18:01:50.264Z,15.72
2022-09-03T18:04:42.980Z,15.66
2022-09-03T18:07:25.390Z,15.62
2022-09-03T18:10:09.320Z,15.55
2022-09-03T18:12:52.701Z,15.49
2022-09-03T18:15:41.072Z,15.40
2022-09-03T18:18:21.897Z,15.34
2022-09-03T18:21:24.350Z,15.26
2022-09-03T18:24:24.804Z,15.18
2022-09-03T18:27:18.697Z,15.08
2022-09-03T18:30:16.989Z,14.97
2022-09-03T18:33:04.045Z,14.87
2022-09-03T18:35:55.578Z,14.76
2022-09-03T18:38:46.780Z,14.66
2022-09-03T18:42:06.141Z,14.52
2022-09-03T18:45:22.018Z,14.40
2022-09-03T18:48:26.974Z,14.29
2022-09-03T18:51:26.613Z,14.19
2022-09-03T18:54:56.948Z,14.11
2022-09-03T18:57:48.713Z,14.02
2022-09-03T19:00:37.694Z,13.94
2022-09-03T19:03:48.023Z,13.86
2022-09-03T19:06:52.992Z,13.79
2022-09-03T19:10:00.147Z,13.76
2022-09-03T19:13:13.085Z,13.70
2022-09-03T19:16:13.586Z,13.60
2022-09-03T19:19:39.111Z,13.54
2022-09-03T19:22:29.491Z,13.48
2022-09-03T19:25:24.413Z,13.44
2022-09-03T19:28:29.078Z,13.39
2022-09-03T19:31:55.152Z,13.35
2022-09-03T19:35:20.061Z,13.33
2022-09-03T19:38:25.824Z,13.36
2022-09-03T19:41:30.964Z,13.36
2022-09-03T19:44:48.445Z,13.34
2022-09-03T19:47:50.661Z,13.32
2022-09-03T19:50:43.711Z,13.35
2022-09-03T19:53:36.648Z,13.39
2022-09-03T19:56:33.906Z,13.40
2022-09-03T19:59:30.363Z,13.40
2022-09-03T20:02:18.943Z,13.44
2022-09-03T20:05:16.624Z,13.46
2022-09-03T20:08:06.481Z,13.50
2022-09-03T20:10:37.656Z,13.52
2022-09-03T20:13:13.390Z,13.50
2022-09-03T20:15:58.936Z,13.46
2022-09-03T20:18:43.798Z,13.40
2022-09-03T20:21:24.390Z,13.36
2022-09-03T20:24:11.212Z,13.27
2022-09-03T20:26:54.070Z,13.24
2022-09-03T20:29:54.629Z,13.23
2022-09-03T20:32:56.976Z,13.23
2022-09-03T20:35:43.540Z,13.19
2022-09-03T20:38:45.576Z,13.14
2022-09-03T20:41:24.990Z,13.05
2022-09-03T20:44:26.562Z,12.98
2022-09-03T20:47:21.209Z,12.94
2022-09-03T20:50:05.411Z,12.93
2022-09-03T20:52:49.404Z,12.88
2022-09-03T20:55:25.249Z,12.82
2022-09-03T20:58:04.588Z,12.79
2022-09-03T21:00:50.159Z,12.75
2022-09-03T21:03:23.798Z,12.71
2022-09-03T21:06:15.970Z,12.65
2022-09-03T21:09:18.245Z,12.59
2022-09-03T21:12:05.163Z,12.53
2022-09-03T21:14:41.440Z,12.49
2022-09-03T21:17:31.868Z,12.45
2022-09-03T21:20:31.820Z,12.41
2022-09-03T21:23:17.319Z,12.40
2022-09-03T21:25:56.286Z,12.36
2022-09-03T21:28:38.567Z,12.31
2022-09-03T21:31:25.971Z,12.24
2022-09-03T21:34:08.919Z,12.19
2022-09-03T21:36:43.015Z,12.17
2022-09-03T21:39:21.927Z,12.20
2022-09-03T21:42:02.573Z,12.16
2022-09-03T21:44:53.198Z,12.15
2022-09-03T21:47:25.931Z,12.14
2022-09-03T21:50:10.912Z,12.14
2022-09-03T21:52:53.183Z,12.18
2022-09-03T21:55:32.379Z,12.19
2022-09-03T21:58:21.288Z,12.20
2022-09-03T22:00:56.957Z,12.24
2022-09-03T22:03:26.624Z,12.25
2022-09-03T22:06:04.809Z,12.24
2022-09-03T22:08:45.473Z,12.21
2022-09-03T22:11:24.852Z,12.15
2022-09-03T22:14:07.364Z,12.08
2022-09-03T22:16:47.142Z,12.06
2022-09-03T22:19:18.116Z,12.01
2022-09-03T22:21:59.593Z,11.97
2022-09-03T22:24:40.807Z,11.93
2022-09-03T22:27:20.425Z,11.91
2022-09-03T22:30:05.018Z,11.88
2022-09-03T22:32:54.893Z,11.88
2022-09-03T22:35:46.464Z,11.87
2022-09-03T22:39:11.779Z,11.85
2022-09-03T22:42:07.724Z,11.83
2022-09-03T22:45:09.947Z,11.81
2022-09-03T22:47:54.253Z,11.76
2022-09-03T22:50:32.912Z,11.73
2022-09-03T22:53:15.035Z,11.72
2022-09-03T22:55:58.740Z,11.72
2022-09-03T22:58:36.791Z,11.74
2022-09-03T23:01:16.503Z,11.73
2022-09-03T23:03:58.836Z,11.71
2022-09-03T23:06:35.656Z,11.68
2022-09-03T23:09:09.360Z,11.67
2022-09-03T23:11:45.523Z,11.66
2022-09-03T23:14:24.145Z,11.65
2022-09-03T23:17:01.180Z,11.65
2022-09-03T23:19:40.994Z,11.63
2022-09-03T23:22:19.600Z,11.63
2022-09-03T23:24:55.425Z,11.59
2022-09-03T23:27:36.321Z,11.60
2022-09-03T23:30:08.647Z,11.58
2022-09-03T23:32:38.426Z,11.57
2022-09-03T23:35:16.185Z,11.58
2022-09-03T23:38:04.564Z,11.56
2022-09-03T23:40:47.749Z,11.49
2022-09-03T23:44:04.171Z,11.46
2022-09-03T23:46:43.313Z,11.42
2022-09-03T23:49:42.166Z,11.43
2022-09-03T23:52:49.891Z,11.42
2022-09-03T23:55:40.957Z,11.45
2022-09-03T23:58:23.475Z,11.44
